Time,TemperatureF,DewpointF,PressureIn,WindDirection,WindDirectionDegrees,WindSpeedMPH,WindSpeedGustMPH,Humidity,HourlyPrecipIn,Conditions,Clouds,dailyrainin,SoftwareType,DateUTC
2013-11-29 00:03:00,42.5,24.0,31.34,East,89,3.0,-999.0,48,-99.99,,,0.00,weatherlink.com 1.10,2013-11-29 06:03:00,
2013-11-29 00:18:00,42.2,25.0,31.34,ENE,74,1.0,-999.0,50,-99.99,,,0.00,weatherlink.com 1.10,2013-11-29 06:18:00,
2013-11-29 00:32:00,41.8,24.0,31.33,ENE,76,0.0,-999.0,50,-99.99,,,0.00,weatherlink.com 1.10,2013-11-29 06:32:00,
2013-11-29 00:47:00,41.1,24.0,31.33,ENE,78,1.0,-999.0,50,-99.99,,,0.00,weatherlink.com 1.10,2013-11-29 06:47:00,
2013-11-29 01:02:00,40.7,22.0,31.33,ENE,70,1.0,-999.0,48,-99.99,,,0.00,weatherlink.com 1.10,2013-11-29 07:02:00,
2013-11-29 01:17:00,40.7,21.0,31.32,ENE,67,2.0,-999.0,45,-99.99,,,0.00,weatherlink.com 1.10,2013-11-29 07:17:00,
2013-11-29 01:32:00,40.5,20.0,31.33,ENE,71,2.0,-999.0,44,-99.99,,,0.00,weatherlink.com 1.10,2013-11-29 07:32:00,
2013-11-29 01:47:00,40.4,20.0,31.32,ENE,59,2.0,-999.0,44,-99.99,,,0.00,weatherlink.com 1.10,2013-11-29 07:47:00,
2013-11-29 02:02:00,40.4,20.0,31.32,ENE,62,1.0,-999.0,44,-99.99,,,0.00,weatherlink.com 1.10,2013-11-29 08:02:00,
2013-11-29 02:17:00,40.0,20.0,31.32,NE,36,4.0,-999.0,45,-99.99,,,0.00,weatherlink.com 1.10,2013-11-29 08:17:00,
2013-11-29 02:32:00,39.7,19.0,31.33,ENE,77,2.0,-999.0,44,-99.99,,,0.00,weatherlink.com 1.10,2013-11-29 08:32:00,
2013-11-29 02:47:00,39.8,19.0,31.33,ENE,60,3.0,-999.0,44,-99.99,,,0.00,weatherlink.com 1.10,2013-11-29 08:47:00,
2013-11-29 03:02:00,39.7,19.0,31.33,ENE,63,3.0,-999.0,44,-99.99,,,0.00,weatherlink.com 1.10,2013-11-29 09:02:00,
2013-11-29 03:17:00,39.7,20.0,31.33,East,82,4.0,-999.0,46,-99.99,,,0.00,weatherlink.com 1.10,2013-11-29 09:17:00,
2013-11-29 03:33:00,39.6,21.0,31.33,East,80,2.0,-999.0,47,-99.99,,,0.00,weatherlink.com 1.10,2013-11-29 09:33:00,
2013-11-29 03:48:00,39.4,22.0,31.33,ENE,70,3.0,-999.0,49,-99.99,,,0.00,weatherlink.com 1.10,2013-11-29 09:48:00,
2013-11-29 04:03:00,39.4,23.0,31.33,NE,53,4.0,-999.0,52,-99.99,,,0.00,weatherlink.com 1.10,2013-11-29 10:03:00,
2013-11-29 04:18:00,39.2,23.0,31.33,ENE,64,2.0,-999.0,53,-99.99,,,0.00,weatherlink.com 1.10,2013-11-29 10:18:00,
2013-11-29 04:33:00,39.0,23.0,31.33,East,83,2.0,-999.0,54,-99.99,,,0.00,weatherlink.com 1.10,2013-11-29 10:33:00,
2013-11-29 04:48:00,38.9,24.0,31.33,East,94,3.0,-999.0,55,-99.99,,,0.00,weatherlink.com 1.10,2013-11-29 10:48:00,
2013-11-29 05:03:00,38.8,25.0,31.33,East,86,4.0,-999.0,57,-99.99,,,0.00,weatherlink.com 1.10,2013-11-29 11:03:00,
2013-11-29 05:18:00,38.7,25.0,31.33,East,86,3.0,-999.0,58,-99.99,,,0.00,weatherlink.com 1.10,2013-11-29 11:18:00,
2013-11-29 05:33:00,38.5,25.0,31.33,NNE,32,2.0,-999.0,58,-99.99,,,0.00,weatherlink.com 1.10,2013-11-29 11:33:00,
2013-11-29 05:48:00,38.2,25.0,31.33,ENE,68,2.0,-999.0,59,-99.99,,,0.00,weatherlink.com 1.10,2013-11-29 11:48:00,
2013-11-29 06:03:00,38.2,26.0,31.33,East,98,3.0,-999.0,61,-99.99,,,0.00,weatherlink.com 1.10,2013-11-29 12:03:00,
2013-11-29 06:18:00,38.3,27.0,31.33,East,88,3.0,-999.0,63,-99.99,,,0.00,weatherlink.com 1.10,2013-11-29 12:18:00,
2013-11-29 06:33:00,38.3,27.0,31.34,ESE,102,5.0,-999.0,64,-99.99,,,0.00,weatherlink.com 1.10,2013-11-29 12:33:00,
2013-11-29 06:48:00,38.3,27.0,31.34,East,86,4.0,-999.0,64,-99.99,,,0.00,weatherlink.com 1.10,2013-11-29 12:48:00,
2013-11-29 07:03:00,38.3,27.0,31.35,East,97,4.0,-999.0,65,-99.99,,,0.00,weatherlink.com 1.10,2013-11-29 13:03:00,
2013-11-29 07:18:00,38.3,27.0,31.35,ENE,69,2.0,-999.0,65,-99.99,,,0.00,weatherlink.com 1.10,2013-11-29 13:18:00,
2013-11-29 07:33:00,39.0,28.0,31.36,ENE,77,4.0,-999.0,66,-99.99,,,0.00,weatherlink.com 1.10,2013-11-29 13:33:00,
2013-11-29 07:48:00,40.0,30.0,31.35,East,95,3.0,-999.0,68,-99.99,,,0.00,weatherlink.com 1.10,2013-11-29 13:48:00,
2013-11-29 08:03:00,41.1,32.0,31.35,ENE,67,5.0,-999.0,69,-99.99,,,0.00,weatherlink.com 1.10,2013-11-29 14:03:00,
2013-11-29 08:18:00,41.8,33.0,31.35,ENE,57,4.0,-999.0,70,-99.99,,,0.00,weatherlink.com 1.10,2013-11-29 14:18:00,
2013-11-29 08:33:00,42.9,34.0,31.36,ESE,110,3.0,-999.0,70,-99.99,,,0.00,weatherlink.com 1.10,2013-11-29 14:33:00,
2013-11-29 08:48:00,44.2,35.0,31.36,ESE,108,4.0,-999.0,70,-99.99,,,0.00,weatherlink.com 1.10,2013-11-29 14:48:00,
2013-11-29 09:04:00,45.4,36.0,31.36,NE,40,3.0,-999.0,69,-99.99,,,0.00,weatherlink.com 1.10,2013-11-29 15:04:00,
2013-11-29 09:34:00,48.5,38.0,31.37,East,100,2.0,-999.0,67,-99.99,,,0.00,weatherlink.com 1.10,2013-11-29 15:34:00,
2013-11-29 09:49:00,49.2,37.0,31.36,ESE,105,0.0,-999.0,63,-99.99,,,0.00,weatherlink.com 1.10,2013-11-29 15:49:00,
2013-11-29 10:04:00,50.4,39.0,31.37,NE,35,5.0,-999.0,64,-99.99,,,0.00,weatherlink.com 1.10,2013-11-29 16:04:00,
2013-11-29 10:19:00,51.0,37.0,31.36,NE,55,1.0,-999.0,60,-99.99,,,0.00,weatherlink.com 1.10,2013-11-29 16:19:00,
2013-11-29 10:34:00,51.8,38.0,31.36,NE,55,3.0,-999.0,60,-99.99,,,0.00,weatherlink.com 1.10,2013-11-29 16:34:00,
2013-11-29 10:49:00,52.7,38.0,31.35,East,83,3.0,-999.0,58,-99.99,,,0.00,weatherlink.com 1.10,2013-11-29 16:49:00,
2013-11-29 11:04:00,53.7,40.0,31.34,ENE,59,2.0,-999.0,60,-99.99,,,0.00,weatherlink.com 1.10,2013-11-29 17:04:00,
2013-11-29 11:19:00,54.4,41.0,31.34,East,94,4.0,-999.0,62,-99.99,,,0.00,weatherlink.com 1.10,2013-11-29 17:19:00,
2013-11-29 11:34:00,55.1,42.0,31.34,East,98,1.0,-999.0,62,-99.99,,,0.00,weatherlink.com 1.10,2013-11-29 17:34:00,
2013-11-29 11:49:00,56.2,43.0,31.34,NW,319,2.0,-999.0,62,-99.99,,,0.00,weatherlink.com 1.10,2013-11-29 17:49:00,
2013-11-29 12:04:00,57.0,43.0,31.33,WNW,300,5.0,-999.0,59,-99.99,,,0.00,weatherlink.com 1.10,2013-11-29 18:04:00,
2013-11-29 12:19:00,57.6,43.0,31.32,NNW,327,4.0,-999.0,59,-99.99,,,0.00,weatherlink.com 1.10,2013-11-29 18:19:00,
2013-11-29 12:34:00,57.9,43.0,31.31,North,355,2.0,-999.0,57,-99.99,,,0.00,weatherlink.com 1.10,2013-11-29 18:34:00,
2013-11-29 12:49:00,58.7,42.0,31.30,NW,317,1.0,-999.0,55,-99.99,,,0.00,weatherlink.com 1.10,2013-11-29 18:49:00,
2013-11-29 13:04:00,59.3,43.0,31.29,NW,310,4.0,-999.0,55,-99.99,,,0.00,weatherlink.com 1.10,2013-11-29 19:04:00,
2013-11-29 13:19:00,59.9,43.0,31.28,NNE,12,1.0,-999.0,53,-99.99,,,0.00,weatherlink.com 1.10,2013-11-29 19:19:00,
2013-11-29 13:33:00,60.0,42.0,31.27,NW,313,0.0,-999.0,52,-99.99,,,0.00,weatherlink.com 1.10,2013-11-29 19:33:00,
2013-11-29 13:48:00,60.6,45.0,31.26,WNW,290,3.0,-999.0,56,-99.99,,,0.00,weatherlink.com 1.10,2013-11-29 19:48:00,
2013-11-29 14:04:00,61.1,43.0,31.26,NW,304,3.0,-999.0,52,-99.99,,,0.00,weatherlink.com 1.10,2013-11-29 20:04:00,
2013-11-29 14:19:00,61.4,44.0,31.25,NW,309,0.0,-999.0,54,-99.99,,,0.00,weatherlink.com 1.10,2013-11-29 20:19:00,
2013-11-29 14:34:00,61.3,44.0,31.24,NW,306,1.0,-999.0,53,-99.99,,,0.00,weatherlink.com 1.10,2013-11-29 20:34:00,
2013-11-29 14:49:00,61.6,45.0,31.24,North,349,0.0,-999.0,54,-99.99,,,0.00,weatherlink.com 1.10,2013-11-29 20:49:00,
2013-11-29 15:04:00,61.7,44.0,31.23,WNW,302,1.0,-999.0,53,-99.99,,,0.00,weatherlink.com 1.10,2013-11-29 21:04:00,
2013-11-29 15:19:00,62.2,45.0,31.23,NE,47,0.0,-999.0,53,-99.99,,,0.00,weatherlink.com 1.10,2013-11-29 21:19:00,
2013-11-29 15:35:00,61.8,45.0,31.23,SE,144,1.0,-999.0,54,-99.99,,,0.00,weatherlink.com 1.10,2013-11-29 21:35:00,
2013-11-29 15:50:00,61.6,43.0,31.23,ENE,72,1.0,-999.0,51,-99.99,,,0.00,weatherlink.com 1.10,2013-11-29 21:50:00,
2013-11-29 16:05:00,61.6,44.0,31.23,ENE,71,0.0,-999.0,53,-99.99,,,0.00,weatherlink.com 1.10,2013-11-29 22:05:00,
2013-11-29 16:20:00,62.4,44.0,31.23,ENE,71,0.0,-999.0,52,-99.99,,,0.00,weatherlink.com 1.10,2013-11-29 22:20:00,
2013-11-29 16:35:00,61.1,44.0,31.22,ENE,71,1.0,-999.0,53,-99.99,,,0.00,weatherlink.com 1.10,2013-11-29 22:35:00,
2013-11-29 16:50:00,59.6,43.0,31.23,ENE,76,1.0,-999.0,54,-99.99,,,0.00,weatherlink.com 1.10,2013-11-29 22:50:00,
2013-11-29 17:05:00,58.5,43.0,31.23,ENE,77,1.0,-999.0,56,-99.99,,,0.00,weatherlink.com 1.10,2013-11-29 23:05:00,
2013-11-29 17:20:00,57.3,43.0,31.23,ENE,77,1.0,-999.0,59,-99.99,,,0.00,weatherlink.com 1.10,2013-11-29 23:20:00,
2013-11-29 17:35:00,55.9,42.0,31.22,ENE,78,0.0,-999.0,61,-99.99,,,0.00,weatherlink.com 1.10,2013-11-29 23:35:00,
2013-11-29 17:50:00,54.8,42.0,31.23,ENE,78,0.0,-999.0,62,-99.99,,,0.00,weatherlink.com 1.10,2013-11-29 23:50:00,
2013-11-29 18:05:00,53.6,42.0,31.24,ENE,78,0.0,-999.0,65,-99.99,,,0.00,weatherlink.com 1.10,2013-11-30 00:05:00,
2013-11-29 18:20:00,52.4,41.0,31.23,ENE,78,0.0,-999.0,66,-99.99,,,0.00,weatherlink.com 1.10,2013-11-30 00:20:00,
2013-11-29 18:35:00,51.4,41.0,31.24,ENE,78,0.0,-999.0,67,-99.99,,,0.00,weatherlink.com 1.10,2013-11-30 00:35:00,
2013-11-29 18:50:00,49.9,40.0,31.24,ENE,78,0.0,-999.0,68,-99.99,,,0.00,weatherlink.com 1.10,2013-11-30 00:50:00,
2013-11-29 19:05:00,48.3,38.0,31.25,ENE,78,0.0,-999.0,68,-99.99,,,0.00,weatherlink.com 1.10,2013-11-30 01:05:00,
2013-11-29 19:20:00,47.2,37.0,31.25,ENE,78,0.0,-999.0,67,-99.99,,,0.00,weatherlink.com 1.10,2013-11-30 01:20:00,
2013-11-29 19:34:00,46.5,36.0,31.25,ENE,78,0.0,-999.0,66,-99.99,,,0.00,weatherlink.com 1.10,2013-11-30 01:34:00,
2013-11-29 19:49:00,47.0,36.0,31.25,ENE,78,0.0,-999.0,66,-99.99,,,0.00,weatherlink.com 1.10,2013-11-30 01:49:00,
2013-11-29 20:04:00,48.6,39.0,31.25,ENE,78,0.0,-999.0,69,-99.99,,,0.00,weatherlink.com 1.10,2013-11-30 02:04:00,
2013-11-29 20:19:00,48.7,39.0,31.25,ENE,78,0.0,-999.0,69,-99.99,,,0.00,weatherlink.com 1.10,2013-11-30 02:19:00,
2013-11-29 20:34:00,49.6,39.0,31.25,ENE,71,0.0,-999.0,68,-99.99,,,0.00,weatherlink.com 1.10,2013-11-30 02:34:00,
2013-11-29 20:49:00,49.7,39.0,31.25,ENE,72,0.0,-999.0,68,-99.99,,,0.00,weatherlink.com 1.10,2013-11-30 02:49:00,
2013-11-29 21:04:00,49.2,39.0,31.25,ENE,72,0.0,-999.0,69,-99.99,,,0.00,weatherlink.com 1.10,2013-11-30 03:04:00,
2013-11-29 21:19:00,48.6,39.0,31.25,ENE,74,2.0,-999.0,69,-99.99,,,0.00,weatherlink.com 1.10,2013-11-30 03:19:00,
2013-11-29 21:34:00,48.2,38.0,31.26,ESE,103,1.0,-999.0,69,-99.99,,,0.00,weatherlink.com 1.10,2013-11-30 03:34:00,
2013-11-29 21:49:00,47.6,38.0,31.26,SSE,150,0.0,-999.0,69,-99.99,,,0.00,weatherlink.com 1.10,2013-11-30 03:49:00,
2013-11-29 22:04:00,46.7,37.0,31.26,SSE,153,1.0,-999.0,68,-99.99,,,0.00,weatherlink.com 1.10,2013-11-30 04:04:00,
2013-11-29 22:19:00,46.1,36.0,31.26,SSE,163,0.0,-999.0,67,-99.99,,,0.00,weatherlink.com 1.10,2013-11-30 04:19:00,
2013-11-29 22:34:00,45.8,35.0,31.26,SSE,162,1.0,-999.0,67,-99.99,,,0.00,weatherlink.com 1.10,2013-11-30 04:34:00,
2013-11-29 22:49:00,45.5,35.0,31.26,SSE,163,0.0,-999.0,67,-99.99,,,0.00,weatherlink.com 1.10,2013-11-30 04:49:00,
2013-11-29 23:04:00,45.1,35.0,31.25,SSE,163,1.0,-999.0,67,-99.99,,,0.00,weatherlink.com 1.10,2013-11-30 05:04:00,
2013-11-29 23:19:00,44.7,34.0,31.26,SSE,163,0.0,-999.0,66,-99.99,,,0.00,weatherlink.com 1.10,2013-11-30 05:19:00,
2013-11-29 23:34:00,44.4,33.0,31.25,SSE,163,0.0,-999.0,65,-99.99,,,0.00,weatherlink.com 1.10,2013-11-30 05:34:00,
2013-11-29 23:49:00,44.1,33.0,31.25,SSE,163,0.0,-999.0,64,-99.99,,,0.00,weatherlink.com 1.10,2013-11-30 05:49:00,